Time;durP1;ratioP1;P1;durP2;ratioP2;P2;SDS_P1;SDS_P2;PMS_P1;PMS_P2;Temp;Humidity;BMP_temperature;BMP_pressure;BME280_temperature;BME280_humidity;BME280_pressure;Samples;Min_cycle;Max_cycle;Signal;HPM_P1;HPM_P2
2023/05/02 00:02:00;;;;;;;40.17;20.10;;;;;;;9.49;100.00;101053.59;5068554;28;20572;-71
2023/05/02 00:04:25;;;;;;;42.33;20.57;;;;;;;9.47;100.00;101057.41;5072401;28;20077;-70
2023/05/02 00:06:54;;;;;;;41.93;20.27;;;;;;;9.52;100.00;101052.47;5070003;28;20417;-70
2023/05/02 00:09:20;;;;;;;41.17;20.52;;;;;;;9.52;100.00;101034.66;5070678;28;20028;-71
2023/05/02 00:11:45;;;;;;;40.15;22.48;;;;;;;9.54;100.00;101031.84;5054478;28;20466;-71
2023/05/02 00:14:11;;;;;;;40.80;21.87;;;;;;;9.56;100.00;101021.03;5069475;28;20127;-71
2023/05/02 00:16:36;;;;;;;39.60;20.20;;;;;;;9.64;100.00;101018.44;5072992;28;20063;-71
2023/05/02 00:19:02;;;;;;;36.80;20.10;;;;;;;9.63;100.00;100998.97;5070076;28;20076;-71
2023/05/02 00:21:31;;;;;;;40.75;22.27;;;;;;;9.63;100.00;100992.78;5071597;28;20500;-70
2023/05/02 00:23:57;;;;;;;45.75;20.63;;;;;;;9.70;100.00;100981.38;5072126;28;20048;-70
2023/05/02 00:26:23;;;;;;;41.92;23.83;;;;;;;9.63;100.00;100972.31;5067690;28;20055;-70
2023/05/02 00:28:49;;;;;;;40.60;21.25;;;;;;;9.62;100.00;100978.63;5053606;28;20029;-71
2023/05/02 00:31:15;;;;;;;45.38;23.45;;;;;;;9.61;100.00;100981.44;5067704;28;20373;-71
2023/05/02 00:33:40;;;;;;;44.30;23.75;;;;;;;9.59;100.00;100983.41;5071957;28;20040;-70
2023/05/02 00:36:14;;;;;;;44.27;22.23;;;;;;;9.55;100.00;100987.38;5069428;28;20037;-71
2023/05/02 00:38:39;;;;;;;52.13;25.30;;;;;;;9.46;100.00;100981.13;5069487;28;20054;-71
2023/05/02 00:41:05;;;;;;;46.67;22.43;;;;;;;9.38;100.00;100978.34;5067667;28;20442;-71
2023/05/02 00:43:31;;;;;;;;;;;;;;;9.37;100.00;100987.34;5069974;28;20021;-70
2023/05/02 00:45:56;;;;;;;;;;;;;;;9.33;100.00;100980.63;5051887;28;19985;-70
2023/05/02 00:48:22;;;;;;;46.23;19.90;;;;;;;9.35;100.00;100982.16;5070998;28;20191;-71
2023/05/02 00:50:47;;;;;;;40.33;20.20;;;;;;;9.49;100.00;100991.47;5070303;28;20111;-70
2023/05/02 00:53:12;;;;;;;42.30;20.57;;;;;;;9.49;100.00;100988.81;5068615;28;20111;-71
2023/05/02 00:55:38;;;;;;;36.17;19.27;;;;;;;9.50;100.00;100985.16;5068651;28;20056;-71
2023/05/02 00:58:16;;;;;;;39.40;21.55;;;;;;;9.54;100.00;100969.72;5067610;28;20036;-70
2023/05/02 01:00:54;;;;;;;41.75;19.35;;;;;;;9.51;100.00;100981.50;5052543;28;20109;-70
2023/05/02 01:03:37;;;;;;;34.58;18.40;;;;;;;9.57;100.00;100980.91;5066452;28;20103;-70
2023/05/02 01:06:15;;;;;;;33.22;18.52;;;;;;;9.63;100.00;100968.81;5056177;28;20042;-70
2023/05/02 01:08:54;;;;;;;37.55;19.50;;;;;;;9.65;100.00;100967.66;5072441;28;20043;-71
2023/05/02 01:11:43;;;;;;;39.03;21.20;;;;;;;9.68;100.00;100969.19;5070785;28;20028;-70
2023/05/02 01:14:10;;;;;;;37.05;19.83;;;;;;;9.68;100.00;100972.69;5065862;28;20024;-70
2023/05/02 01:16:40;;;;;;;41.25;20.65;;;;;;;9.71;100.00;100958.22;5051451;28;20112;-71
2023/05/02 01:19:11;;;;;;;36.88;20.38;;;;;;;9.68;100.00;100948.69;5068846;28;20028;-70
2023/05/02 01:21:37;;;;;;;39.92;21.48;;;;;;;9.76;100.00;100963.91;5071597;28;20452;-70
2023/05/02 01:24:12;;;;;;;42.03;19.52;;;;;;;9.67;100.00;100965.69;5069027;28;20029;-70
2023/05/02 01:27:12;;;;;;;38.63;18.85;;;;;;;9.61;100.00;100968.13;5051629;28;20126;-70
2023/05/02 01:29:39;;;;;;;42.53;18.58;;;;;;;9.64;100.00;100975.81;5086342;28;20037;-71
2023/05/02 01:32:07;;;;;;;34.70;18.40;;;;;;;9.63;100.00;100990.13;5067528;28;20534;-70
2023/05/02 01:34:36;;;;;;;43.80;21.00;;;;;;;9.63;100.00;100998.97;5067257;28;20029;-72
2023/05/02 01:37:04;;;;;;;43.88;18.25;;;;;;;9.58;100.00;100992.41;5068207;28;20052;-75
2023/05/02 01:39:31;;;;;;;38.17;17.58;;;;;;;9.59;100.00;101002.91;5069999;28;20410;-69
2023/05/02 01:41:58;;;;;;;;;;;;;;;9.64;100.00;101003.28;5069465;28;20815;-69
2023/05/02 01:44:24;;;;;;;35.88;16.38;;;;;;;9.55;100.00;101003.34;5068988;28;19913;-70
2023/05/02 01:46:51;;;;;;;36.72;17.02;;;;;;;9.57;100.00;101006.72;5071142;28;20024;-70
2023/05/02 01:49:18;;;;;;;33.08;15.07;;;;;;;9.52;100.00;101004.50;5067142;28;20440;-75
2023/05/02 01:51:46;;;;;;;42.58;16.80;;;;;;;9.55;100.00;101006.03;5070495;28;20381;-71
2023/05/02 01:54:14;;;;;;;34.25;15.68;;;;;;;9.52;100.00;101002.66;5051254;28;20040;-72
2023/05/02 01:56:42;;;;;;;37.60;15.77;;;;;;;9.47;100.00;101007.59;5050888;28;20025;-70
2023/05/02 01:59:11;;;;;;;34.45;16.52;;;;;;;9.51;100.00;101016.16;5069513;28;20036;-71
2023/05/02 02:01:37;;;;;;;28.08;14.00;;;;;;;9.59;100.00;101013.56;5072776;28;20500;-73
2023/05/02 02:04:05;;;;;;;35.70;15.18;;;;;;;9.51;100.00;101009.00;5071889;28;20418;-70
2023/05/02 02:06:32;;;;;;;30.92;15.55;;;;;;;9.55;100.00;101022.84;5070776;28;20052;-72
2023/05/02 02:08:58;;;;;;;28.38;14.02;;;;;;;9.39;100.00;101022.66;5069723;28;20123;-71
2023/05/02 02:11:34;;;;;;;23.33;12.88;;;;;;;9.44;100.00;101033.72;5073634;28;20515;-71
2023/05/02 02:14:05;;;;;;;16.00;7.45;;;;;;;9.24;100.00;101025.81;5072802;28;20173;-71
2023/05/02 02:16:33;;;;;;;14.57;8.73;;;;;;;9.18;100.00;101036.25;5073047;28;20112;-69
2023/05/02 02:19:04;;;;;;;15.93;7.43;;;;;;;9.08;100.00;101049.56;5053631;28;20018;-70
2023/05/02 02:21:32;;;;;;;8.73;4.93;;;;;;;8.89;100.00;101039.81;5072991;28;20035;-70
2023/05/02 02:24:01;;;;;;;11.20;5.65;;;;;;;8.69;100.00;101038.19;5071725;28;20185;-69
2023/05/02 02:26:27;;;;;;;12.45;5.22;;;;;;;8.26;100.00;101003.03;5052611;28;20131;-72
2023/05/02 02:28:52;;;;;;;15.80;5.80;;;;;;;8.16;100.00;101012.88;5071551;28;20122;-70
2023/05/02 02:31:19;;;;;;;15.85;5.22;;;;;;;7.95;100.00;100992.56;5071304;28;20024;-71
2023/05/02 02:33:44;;;;;;;21.33;5.47;;;;;;;7.81;100.00;100990.31;5073185;28;20465;-71
2023/05/02 02:36:35;;;;;;;12.40;4.53;;;;;;;7.75;100.00;100998.81;5052884;28;20024;-69
2023/05/02 02:39:20;;;;;;;15.25;5.78;;;;;;;7.40;100.00;100957.69;5070231;28;20285;-72
2023/05/02 02:42:06;;;;;;;14.20;4.25;;;;;;;7.38;100.00;100960.47;5067511;28;20523;-74
2023/05/02 02:45:03;;;;;;;19.33;4.95;;;;;;;7.25;100.00;100921.84;5069830;28;20036;-75
2023/05/02 02:48:01;;;;;;;19.30;5.63;;;;;;;6.93;100.00;100883.06;5071085;28;20460;-71
2023/05/02 02:51:06;;;;;;;16.75;4.13;;;;;;;6.87;100.00;100855.25;5071050;28;20033;-75
2023/05/02 02:53:43;;;;;;;12.43;3.97;;;;;;;6.70;100.00;100821.41;5040541;28;20048;-73
2023/05/02 02:56:35;;;;;;;19.38;5.93;;;;;;;6.51;100.00;100766.50;5049014;28;20036;-70
2023/05/02 02:59:15;;;;;;;17.00;5.63;;;;;;;6.61;100.00;100740.81;5071012;28;20040;-71
2023/05/02 03:01:45;;;;;;;19.27;5.53;;;;;;;6.45;100.00;100687.47;5071987;28;20518;-70
2023/05/02 03:04:12;;;;;;;19.40;5.43;;;;;;;6.37;100.00;100650.16;5067325;28;20058;-70
2023/05/02 03:06:38;;;;;;;20.10;4.85;;;;;;;6.21;100.00;100595.88;5044529;28;20048;-70
2023/05/02 03:09:04;;;;;;;21.75;5.15;;;;;;;6.17;100.00;100552.06;5053231;28;20028;-73
2023/05/02 03:11:30;;;;;;;17.55;3.80;;;;;;;5.92;100.00;100485.34;5069838;28;20111;-71
2023/05/02 03:13:56;;;;;;;24.77;5.07;;;;;;;5.80;100.00;100459.13;5053849;28;20040;-76
2023/05/02 03:16:39;;;;;;;20.88;4.05;;;;;;;5.89;100.00;100480.31;5074225;28;20436;-72
2023/05/02 03:19:08;;;;;;;19.35;5.30;;;;;;;5.74;100.00;100402.25;5055888;28;20535;-71
2023/05/02 03:21:35;;;;;;;13.47;4.07;;;;;;;5.81;100.00;100411.28;5054495;28;20028;-71
2023/05/02 03:24:07;;;;;;;15.13;4.40;;;;;;;5.76;100.00;100375.59;5070044;28;20097;-74
2023/05/02 03:26:32;;;;;;;19.10;5.53;;;;;;;5.77;100.00;100342.84;5070229;28;20481;-70
2023/05/02 03:28:58;;;;;;;20.30;4.55;;;;;;;5.71;100.00;100321.25;5071306;28;20434;-70
2023/05/02 03:31:29;;;;;;;17.75;4.55;;;;;;;5.68;100.00;100299.50;5069574;28;20064;-70
2023/05/02 03:33:55;;;;;;;17.38;4.53;;;;;;;5.72;100.00;100308.81;5068826;28;20060;-70
2023/05/02 03:36:21;;;;;;;21.80;5.05;;;;;;;5.64;100.00;100295.44;5070943;28;20074;-71
2023/05/02 03:38:47;;;;;;;18.70;5.75;;;;;;;5.64;100.00;100275.13;5066757;28;20037;-75
2023/05/02 03:41:12;;;;;;;21.83;5.45;;;;;;;5.59;100.00;100236.78;5069903;28;20039;-70
2023/05/02 03:43:39;;;;;;;18.17;5.47;;;;;;;5.50;100.00;100230.50;5043730;28;20393;-72
2023/05/02 03:46:06;;;;;;;30.55;4.95;;;;;;;5.59;100.00;100265.91;5070078;28;20085;-70
2023/05/02 03:48:34;;;;;;;26.88;6.55;;;;;;;5.58;100.00;100307.44;5071624;28;20019;-70
2023/05/02 03:51:02;;;;;;;17.75;4.88;;;;;;;5.42;100.00;100265.66;5067538;28;20052;-72
2023/05/02 03:53:30;;;;;;;17.65;4.32;;;;;;;5.47;100.00;100257.28;5068643;28;20039;-70
2023/05/02 03:55:57;;;;;;;19.88;3.78;;;;;;;5.38;100.00;100195.41;5068392;28;20044;-73
2023/05/02 03:58:32;;;;;;;23.35;4.43;;;;;;;5.30;100.00;100171.50;5069381;28;20111;-75
2023/05/02 04:00:58;;;;;;;17.17;3.95;;;;;;;5.28;100.00;100181.38;5051925;28;20036;-69
2023/05/02 04:03:25;;;;;;;14.40;3.75;;;;;;;5.25;100.00;100165.78;5054188;28;20485;-71
2023/05/02 04:05:51;;;;;;;14.00;3.92;;;;;;;5.24;100.00;100150.88;5040688;28;20049;-72
2023/05/02 04:08:17;;;;;;;21.70;4.97;;;;;;;5.23;100.00;100077.75;5071218;28;20051;-74
2023/05/02 04:10:43;;;;;;;19.77;3.92;;;;;;;5.13;100.00;100063.69;5053991;28;20028;-70
2023/05/02 04:13:10;;;;;;;20.80;3.92;;;;;;;5.14;100.00;100094.50;5067358;28;20031;-70
2023/05/02 04:15:38;;;;;;;22.45;5.45;;;;;;;5.25;100.00;100116.34;5042937;28;20081;-69
2023/05/02 04:18:05;;;;;;;;;;;;;;;5.18;100.00;100057.03;5069947;28;20552;-69
2023/05/02 04:20:30;;;;;;;22.48;4.32;;;;;;;5.23;100.00;100011.59;5052080;28;20006;-69
2023/05/02 04:22:56;;;;;;;26.90;4.70;;;;;;;5.08;100.00;99990.91;5068336;28;20061;-74
2023/05/02 04:25:21;;;;;;;14.95;3.35;;;;;;;5.14;100.00;99986.00;5069585;28;20123;-75
2023/05/02 04:27:49;;;;;;;20.65;4.25;;;;;;;5.29;100.00;100022.44;5050040;28;20029;-69
2023/05/02 04:30:18;;;;;;;19.42;3.95;;;;;;;5.38;100.00;100004.81;5069231;28;20032;-72
2023/05/02 04:32:52;;;;;;;17.05;3.42;;;;;;;5.41;100.00;99993.13;5065806;28;20090;-76
2023/05/02 04:35:18;;;;;;;18.45;4.13;;;;;;;5.54;100.00;100024.53;5070832;28;20123;-71
2023/05/02 04:37:45;;;;;;;13.30;3.25;;;;;;;5.60;100.00;100051.28;5069195;28;20031;-71
2023/05/02 04:40:11;;;;;;;20.15;4.63;;;;;;;5.59;100.00;100044.28;5068176;28;20115;-70
2023/05/02 04:42:37;;;;;;;10.80;3.80;;;;;;;5.61;100.00;100031.75;5071266;28;20044;-70
2023/05/02 04:45:13;;;;;;;18.92;5.22;;;;;;;5.62;100.00;100016.69;5064544;28;20044;-70
2023/05/02 04:47:40;;;;;;;18.05;4.22;;;;;;;5.48;100.00;100015.38;5066446;28;20043;-70
2023/05/02 04:50:06;;;;;;;20.67;3.50;;;;;;;5.68;100.00;100077.00;5063742;28;20021;-75
2023/05/02 04:52:32;;;;;;;13.02;3.95;;;;;;;5.68;100.00;100024.88;5065179;28;20032;-73
2023/05/02 04:54:57;;;;;;;17.40;3.90;;;;;;;5.64;100.00;100015.56;5063302;28;20035;-69
2023/05/02 04:57:23;;;;;;;13.15;3.40;;;;;;;5.64;100.00;99999.69;5049334;28;20339;-69
2023/05/02 04:59:53;;;;;;;12.85;3.63;;;;;;;5.69;100.00;100001.88;5068635;28;20054;-71
2023/05/02 05:02:19;;;;;;;;;;;;;;;5.98;100.00;100043.28;5068084;28;20432;-69
2023/05/02 05:04:44;;;;;;;14.57;4.35;;;;;;;5.97;100.00;99967.41;5065852;28;19912;-70
2023/05/02 05:07:10;;;;;;;14.93;3.63;;;;;;;5.92;100.00;99955.44;5069098;28;20024;-71
2023/05/02 05:09:36;;;;;;;16.13;3.83;;;;;;;5.73;100.00;99902.59;5070912;28;20547;-69
2023/05/02 05:12:01;;;;;;;17.83;4.13;;;;;;;5.76;100.00;99963.22;5069010;28;20545;-74
2023/05/02 05:14:30;;;;;;;13.07;3.08;;;;;;;6.01;100.00;100027.91;5053533;28;20035;-71
2023/05/02 05:16:55;;;;;;;15.38;4.15;;;;;;;5.92;100.00;100012.88;5073241;28;20477;-69
2023/05/02 05:19:21;;;;;;;12.93;3.55;;;;;;;6.01;100.00;99976.72;5070226;28;20024;-74
2023/05/02 05:21:47;;;;;;;19.40;3.92;;;;;;;5.75;100.00;99852.94;5054660;28;20028;-72
2023/05/02 05:24:15;;;;;;;16.35;2.92;;;;;;;5.79;100.00;99885.28;5070755;28;20025;-71
2023/05/02 05:26:41;;;;;;;10.93;4.13;;;;;;;5.79;100.00;99922.34;5061561;28;20428;-71
2023/05/02 05:29:07;;;;;;;;;;;;;;;5.90;100.00;99909.72;5067810;28;20036;-71
2023/05/02 05:31:37;;;;;;;16.23;3.25;;;;;;;5.82;100.00;99875.19;5066868;28;20339;-71
2023/05/02 05:34:03;;;;;;;18.98;3.70;;;;;;;5.89;100.00;99870.09;5066946;28;20068;-72
2023/05/02 05:36:30;;;;;;;13.30;3.90;;;;;;;5.95;100.00;99879.28;5067108;28;20048;-70
2023/05/02 05:38:55;;;;;;;11.30;3.67;;;;;;;5.99;100.00;99885.94;5070088;28;20482;-69
2023/05/02 05:41:21;;;;;;;20.80;5.53;;;;;;;5.92;100.00;99864.50;5077601;28;20036;-72
2023/05/02 05:43:52;;;;;;;20.75;3.67;;;;;;;5.98;100.00;99893.06;5073934;28;20551;-75
2023/05/02 05:46:17;;;;;;;17.03;4.47;;;;;;;5.97;100.00;99885.25;5071871;28;20032;-71
2023/05/02 05:48:42;;;;;;;14.37;3.73;;;;;;;6.06;100.00;99879.03;5066850;28;20111;-71
2023/05/02 05:51:08;;;;;;;;;;;;;;;6.10;100.00;99889.19;5069963;28;20058;-70
2023/05/02 05:53:34;;;;;;;;;;;;;;;6.03;100.00;99789.28;5073605;28;19916;-70
2023/05/02 05:56:09;;;;;;;8.25;2.38;;;;;;;6.13;100.00;99721.06;5055577;28;20337;-71
2023/05/02 05:58:36;;;;;;;16.17;3.30;;;;;;;6.07;100.00;99661.59;5070135;28;20024;-70
2023/05/02 06:01:01;;;;;;;;;;;;;;;5.95;100.00;99611.69;5070492;28;20031;-71
2023/05/02 06:03:27;;;;;;;;;;;;;;;6.05;100.00;99644.22;5070496;28;19919;-70
2023/05/02 06:05:53;;;;;;;;;;;;;;;6.19;100.00;99637.47;5068309;28;19923;-70
2023/05/02 06:08:20;;;;;;;8.88;2.80;;;;;;;6.03;100.00;99533.06;5055378;28;19916;-70
2023/05/02 06:10:46;;;;;;;13.85;2.90;;;;;;;6.07;100.00;99533.59;5074419;28;20382;-70
2023/05/02 06:13:11;;;;;;;10.93;2.67;;;;;;;6.37;100.00;99626.72;5073603;28;20027;-70
2023/05/02 06:15:40;;;;;;;17.38;2.67;;;;;;;6.15;100.00;99467.34;5057329;28;20036;-70
2023/05/02 06:18:05;;;;;;;15.43;2.63;;;;;;;6.15;100.00;99447.97;5070803;28;20046;-70
2023/05/02 06:20:31;;;;;;;14.23;2.50;;;;;;;6.23;100.00;99501.81;5071010;28;20036;-70
2023/05/02 06:22:56;;;;;;;10.97;2.87;;;;;;;6.51;100.00;99669.38;5069320;28;20512;-70
2023/05/02 06:25:22;;;;;;;9.50;2.50;;;;;;;6.58;100.00;99658.94;5076137;28;20044;-75
2023/05/02 06:27:47;;;;;;;9.37;2.43;;;;;;;6.68;100.00;99638.38;5070066;28;20111;-72
2023/05/02 06:30:13;;;;;;;9.47;2.50;;;;;;;6.55;100.00;99458.56;5067121;28;20056;-69
2023/05/02 06:32:38;;;;;;;9.83;2.43;;;;;;;6.68;100.00;99507.59;5078083;28;20623;-71
2023/05/02 06:35:04;;;;;;;8.83;3.27;;;;;;;6.51;99.43;99345.88;5075754;28;20668;-71
2023/05/02 06:37:34;;;;;;;11.77;3.50;;;;;;;6.38;98.35;99287.25;5068912;28;20032;-70
2023/05/02 06:40:00;;;;;;;8.10;2.72;;;;;;;6.34;97.37;99260.25;5065579;28;20032;-71
2023/05/02 06:42:25;;;;;;;7.70;2.75;;;;;;;6.46;97.44;99299.63;5049190;28;20020;-69
2023/05/02 06:44:50;;;;;;;10.97;3.30;;;;;;;6.68;96.56;99317.44;5061056;28;20135;-70
2023/05/02 06:47:16;;;;;;;9.63;2.27;;;;;;;6.46;94.73;99159.13;5066789;28;20139;-72
2023/05/02 06:49:41;;;;;;;15.37;3.37;;;;;;;6.52;93.92;99134.56;5075140;28;20031;-73
2023/05/02 06:52:06;;;;;;;17.53;3.20;;;;;;;6.78;94.87;99303.16;5071369;28;20129;-74
2023/05/02 06:54:32;;;;;;;9.83;2.77;;;;;;;6.81;94.31;99286.88;5065309;28;20439;-74
2023/05/02 06:56:58;;;;;;;11.20;2.50;;;;;;;6.84;93.36;99236.16;5065437;28;20615;-70
2023/05/02 06:59:23;;;;;;;;;;;;;;;6.86;92.66;99199.63;5068756;28;20425;-72
2023/05/02 07:01:48;;;;;;;8.55;3.55;;;;;;;7.14;92.75;99336.13;5068138;28;19912;-71
2023/05/02 07:04:14;;;;;;;10.13;2.73;;;;;;;7.05;91.68;99196.53;5053018;28;20468;-69
2023/05/02 07:06:39;;;;;;;8.95;2.30;;;;;;;7.17;90.94;99195.09;5045223;28;20414;-72
2023/05/02 07:09:05;;;;;;;11.80;3.50;;;;;;;7.47;91.21;99314.69;5071343;28;20121;-73
2023/05/02 07:11:30;;;;;;;9.47;3.23;;;;;;;7.34;89.49;99144.53;5070670;28;20161;-70
2023/05/02 07:13:56;;;;;;;9.53;2.20;;;;;;;7.52;89.67;99247.75;5069517;28;20032;-72
2023/05/02 07:16:22;;;;;;;7.53;1.90;;;;;;;7.14;87.71;98996.41;5072079;28;20032;-69
2023/05/02 07:18:47;;;;;;;7.97;1.80;;;;;;;6.90;87.22;98936.47;5040976;28;20050;-71
2023/05/02 07:21:13;;;;;;;12.17;2.77;;;;;;;7.04;87.45;99027.69;5052189;28;20021;-70
2023/05/02 07:23:38;;;;;;;7.95;2.03;;;;;;;7.16;87.50;99111.19;5072352;28;20481;-72
2023/05/02 07:26:06;;;;;;;11.20;1.97;;;;;;;7.19;87.09;99108.16;5069441;28;20028;-72
2023/05/02 07:28:32;;;;;;;6.82;2.08;;;;;;;7.09;86.76;99073.06;5051754;28;20286;-71
2023/05/02 07:30:58;;;;;;;10.85;2.10;;;;;;;7.51;87.10;99262.84;5038215;23;20029;-73
2023/05/02 07:33:23;;;;;;;8.60;2.47;;;;;;;7.79;86.42;99288.84;5024155;28;20128;-74
2023/05/02 07:35:49;;;;;;;8.90;2.13;;;;;;;8.58;84.32;99275.09;5018736;28;20082;-75
2023/05/02 07:38:15;;;;;;;6.68;1.88;;;;;;;9.34;84.66;99442.47;5024513;28;20029;-75
2023/05/02 07:40:40;;;;;;;7.00;2.43;;;;;;;9.34;81.70;99096.22;5021803;28;20029;-74
2023/05/02 07:43:06;;;;;;;6.55;2.35;;;;;;;8.59;79.16;98664.91;5019863;28;20353;-74
2023/05/02 07:45:31;;;;;;;23.13;2.60;;;;;;;8.37;79.86;98811.25;4998799;28;20498;-76
2023/05/02 07:47:56;;;;;;;6.80;3.00;;;;;;;9.06;78.42;98895.59;5020848;28;20075;-76
2023/05/02 07:50:22;;;;;;;6.63;2.00;;;;;;;8.78;78.63;98839.75;4999446;28;20470;-74
2023/05/02 07:52:48;;;;;;;24.67;3.17;;;;;;;8.88;78.17;98869.47;5001108;28;20026;-74
2023/05/02 07:55:14;;;;;;;14.63;2.87;;;;;;;9.46;76.82;98921.56;5005407;28;20041;-74
2023/05/02 07:57:39;;;;;;;9.98;2.30;;;;;;;9.82;76.54;98968.38;5013955;28;20160;-74
2023/05/02 08:00:08;;;;;;;13.55;2.45;;;;;;;10.67;74.23;98961.50;5018568;28;20093;-75
2023/05/02 08:02:38;;;;;;;8.13;2.13;;;;;;;10.76;72.72;98807.31;5013821;28;20120;-74
2023/05/02 08:05:04;;;;;;;9.80;2.17;;;;;;;10.93;71.24;98691.03;5031264;28;20112;-73
2023/05/02 08:07:31;;;;;;;13.57;2.15;;;;;;;10.53;71.75;98725.88;5017905;28;20115;-74
2023/05/02 08:09:56;;;;;;;7.47;2.10;;;;;;;10.79;70.28;98689.44;5015513;28;20577;-77
2023/05/02 08:12:21;;;;;;;6.87;2.10;;;;;;;10.58;69.60;98533.16;5003806;28;20025;-75
2023/05/02 08:14:47;;;;;;;10.10;2.03;;;;;;;11.23;70.19;98888.06;5018190;28;20451;-74
2023/05/02 08:17:12;;;;;;;9.40;2.27;;;;;;;9.82;67.66;98164.38;5021791;28;20125;-74
2023/05/02 08:19:37;;;;;;;6.40;2.07;;;;;;;10.42;67.72;98443.81;5002926;28;20114;-74
2023/05/02 08:22:03;;;;;;;8.60;2.20;;;;;;;11.63;67.37;98802.31;5018148;28;20445;-73
2023/05/02 08:24:30;;;;;;;9.50;2.27;;;;;;;12.13;65.72;98732.00;5020603;28;20025;-73
2023/05/02 08:26:55;;;;;;;7.15;2.50;;;;;;;12.51;64.50;98721.06;5033674;28;20034;-73
2023/05/02 08:29:20;;;;;;;15.80;2.93;;;;;;;12.55;61.91;98385.03;5021495;28;20025;-73
2023/05/02 08:31:46;;;;;;;11.97;3.20;;;;;;;12.67;60.90;98343.00;5029211;28;20045;-73
2023/05/02 08:34:11;;;;;;;11.13;2.87;;;;;;;13.36;61.14;98650.47;5004835;28;20064;-73
2023/05/02 08:36:36;;;;;;;10.27;2.63;;;;;;;13.77;58.88;98415.44;5018186;28;20042;-73
2023/05/02 08:39:02;;;;;;;14.37;2.30;;;;;;;13.24;58.22;98191.44;4999069;28;20045;-73
2023/05/02 08:41:29;;;;;;;9.00;1.70;;;;;;;14.06;57.45;98469.03;5016115;28;20109;-74
2023/05/02 08:43:55;;;;;;;5.00;1.80;;;;;;;12.56;58.76;98159.13;5013716;28;20056;-73
2023/05/02 08:46:22;;;;;;;7.68;2.45;;;;;;;11.92;59.49;98166.41;5017434;28;20017;-73
2023/05/02 08:48:49;;;;;;;8.00;2.42;;;;;;;11.66;60.10;98296.75;4998437;28;20634;-73
2023/05/02 08:51:16;;;;;;;8.00;1.98;;;;;;;11.41;61.03;98441.16;5021384;28;20403;-74
2023/05/02 08:53:42;;;;;;;7.35;1.83;;;;;;;11.94;59.73;98440.50;5012698;28;20491;-73
2023/05/02 08:56:09;;;;;;;7.03;1.70;;;;;;;12.02;59.01;98356.47;5018764;28;20029;-73
2023/05/02 08:58:36;;;;;;;10.60;1.80;;;;;;;12.06;58.78;98322.88;5013553;28;20099;-73
2023/05/02 09:01:08;;;;;;;6.65;2.00;;;;;;;12.11;59.64;98561.03;5016509;28;20033;-73
2023/05/02 09:03:34;;;;;;;8.10;2.47;;;;;;;12.41;58.80;98542.31;5020483;28;20061;-73
2023/05/02 09:06:07;;;;;;;11.48;2.42;;;;;;;12.50;57.63;98350.09;5019566;28;20041;-73
2023/05/02 09:08:34;;;;;;;6.60;1.88;;;;;;;12.56;58.06;98549.91;5019255;28;20033;-73
2023/05/02 09:11:01;;;;;;;7.50;1.77;;;;;;;13.36;58.77;98947.97;5018434;28;20482;-73
2023/05/02 09:14:02;;;;;;;4.82;1.63;;;;;;;13.43;57.70;98747.66;5024085;28;20436;-73
2023/05/02 09:16:28;;;;;;;5.28;2.05;;;;;;;13.62;55.24;98474.91;5019342;28;20049;-73
2023/05/02 09:18:58;;;;;;;5.72;2.53;;;;;;;14.86;54.90;98854.03;5018783;28;20034;-73
2023/05/02 09:21:25;;;;;;;7.13;2.38;;;;;;;14.28;54.47;98510.25;5018995;28;20107;-73
2023/05/02 09:23:56;;;;;;;8.50;2.25;;;;;;;14.10;55.02;98550.69;5016672;28;20303;-73
2023/05/02 09:26:30;;;;;;;6.05;1.70;;;;;;;12.92;56.00;98351.78;5020747;28;20148;-73
2023/05/02 09:28:56;;;;;;;11.63;2.42;;;;;;;13.20;56.55;98608.22;5025592;28;20071;-73
2023/05/02 09:31:24;;;;;;;6.70;2.20;;;;;;;12.66;56.53;98412.81;5025547;28;20060;-73
2023/05/02 09:33:50;;;;;;;6.90;2.05;;;;;;;12.46;57.26;98504.16;5025573;28;20064;-73
2023/05/02 09:36:19;;;;;;;6.40;2.00;;;;;;;14.08;57.01;99161.91;5025877;28;20041;-73
2023/05/02 09:38:49;;;;;;;10.13;2.22;;;;;;;14.67;55.87;99152.28;5022285;28;20124;-73
2023/05/02 09:41:18;;;;;;;4.70;1.52;;;;;;;14.28;52.80;98471.84;5008144;28;20055;-73
2023/05/02 09:43:54;;;;;;;11.18;2.60;;;;;;;15.56;53.53;99082.41;5024997;28;20083;-73
2023/05/02 09:46:20;;;;;;;4.97;1.83;;;;;;;16.39;52.25;99119.94;5025469;28;20053;-73
2023/05/02 09:48:56;;;;;;;10.75;1.85;;;;;;;16.28;51.25;98811.97;5022207;28;20113;-73
2023/05/02 09:51:24;;;;;;;5.65;1.85;;;;;;;16.54;50.27;98654.19;5026458;28;20152;-75
2023/05/02 09:53:51;;;;;;;6.60;1.77;;;;;;;14.58;51.52;98197.69;5023018;28;20044;-73
2023/05/02 09:56:16;;;;;;;;;;;;;;;14.72;50.77;98278.69;5008787;28;20505;-73
2023/05/02 09:58:42;;;;;;;;;;;;;;;14.76;49.77;98071.16;5017875;28;19916;-72
2023/05/02 10:01:13;;;;;;;;;;;;;;;16.02;50.90;98789.22;5019548;28;20386;-73
2023/05/02 10:03:40;;;;;;;7.03;2.50;;;;;;;14.72;50.80;98190.06;5023227;28;20594;-72
2023/05/02 10:06:07;;;;;;;9.40;1.98;;;;;;;13.53;52.84;98240.44;5023197;28;20494;-73
2023/05/02 10:08:34;;;;;;;6.30;2.00;;;;;;;13.05;53.26;98247.88;5026269;28;20531;-73
2023/05/02 10:11:04;;;;;;;10.15;2.22;;;;;;;14.01;53.27;98680.91;5024729;28;20040;-73
2023/05/02 10:13:33;;;;;;;6.47;2.15;;;;;;;14.50;51.59;98592.78;5023726;28;20064;-73
2023/05/02 10:16:00;;;;;;;11.65;2.40;;;;;;;14.47;51.28;98563.72;5008117;28;20081;-73
2023/05/02 10:18:57;;;;;;;6.22;2.22;;;;;;;13.47;51.52;98102.88;5024549;28;20033;-73
2023/05/02 10:21:28;;;;;;;8.48;1.73;;;;;;;12.92;52.52;98189.25;5018830;28;20505;-72
2023/05/02 10:23:54;;;;;;;5.65;2.47;;;;;;;12.61;52.66;98137.00;5024116;28;20104;-75
2023/05/02 10:26:22;;;;;;;6.93;2.28;;;;;;;13.80;51.04;98414.94;5021789;28;20033;-75
2023/05/02 10:28:48;;;;;;;4.15;1.48;;;;;;;15.00;50.24;98742.53;5002732;28;20030;-73
2023/05/02 10:31:16;;;;;;;3.55;1.73;;;;;;;15.43;49.79;98788.72;5024125;28;20452;-75
2023/05/02 10:33:41;;;;;;;7.15;1.90;;;;;;;15.07;50.53;98715.50;5018184;28;20060;-72
2023/05/02 10:36:13;;;;;;;8.77;3.13;;;;;;;15.54;48.16;98474.00;5025236;28;20025;-75
2023/05/02 10:38:39;;;;;;;5.82;1.90;;;;;;;14.07;50.08;98205.06;5027064;28;20295;-74
2023/05/02 10:41:28;;;;;;;;;;;;;;;14.14;50.69;98380.94;5010925;28;20017;-75
2023/05/02 10:43:54;;;;;;;6.40;3.30;;;;;;;12.99;51.52;98106.09;5016511;28;20306;-74
2023/05/02 10:46:29;;;;;;;6.13;2.13;;;;;;;12.90;52.19;98220.84;5026729;28;20032;-75
2023/05/02 10:49:06;;;;;;;8.77;1.90;;;;;;;12.98;53.01;98517.72;5008336;28;20038;-74
2023/05/02 10:51:33;;;;;;;6.90;2.25;;;;;;;12.97;54.31;98714.31;5026565;28;20081;-76
2023/05/02 10:54:24;;;;;;;7.90;2.40;;;;;;;12.85;55.14;98900.88;5009657;28;20056;-74
2023/05/02 10:57:05;;;;;;;6.13;2.70;;;;;;;11.98;55.12;98524.56;5023815;28;20034;-76
2023/05/02 11:00:21;;;;;;;10.23;2.22;;;;;;;13.15;55.40;99146.66;5022661;28;20134;-76
2023/05/02 11:03:12;;;;;;;4.97;2.10;;;;;;;14.38;54.13;99400.09;5021094;28;20048;-74
2023/05/02 11:06:06;;;;;;;7.80;2.28;;;;;;;14.23;53.04;99072.94;5027477;28;20646;-74
2023/05/02 11:09:13;;;;;;;7.32;2.10;;;;;;;12.85;53.20;98512.59;5029614;28;20101;-74
2023/05/02 11:12:04;;;;;;;9.02;2.83;;;;;;;12.27;55.06;98681.81;5024803;28;20036;-74
2023/05/02 11:14:55;;;;;;;5.90;2.20;;;;;;;12.36;54.89;98744.72;5026496;28;20084;-75
2023/05/02 11:33:42;;;;;;;7.50;2.38;;;;;;;12.87;55.71;99070.22;5094145;27;20415;-71
2023/05/02 11:36:07;;;;;;;7.50;2.53;;;;;;;12.89;55.33;99027.97;5064749;28;20426;-70
2023/05/02 11:38:37;;;;;;;7.33;2.40;;;;;;;12.81;54.75;98891.69;5065749;28;20039;-71
2023/05/02 11:41:03;;;;;;;5.40;2.15;;;;;;;12.83;54.77;98878.88;5063050;28;20375;-71
2023/05/02 11:43:29;;;;;;;7.43;2.20;;;;;;;13.35;54.86;99150.03;5064486;28;20029;-71
2023/05/02 11:45:56;;;;;;;4.80;2.22;;;;;;;14.22;53.68;99332.47;5055839;28;20497;-71
2023/05/02 11:48:22;;;;;;;10.82;2.40;;;;;;;13.71;53.11;98934.72;5063666;28;20035;-71
2023/05/02 11:50:50;;;;;;;8.45;2.38;;;;;;;15.29;52.18;99463.03;5064075;28;20044;-71
2023/05/02 11:53:18;;;;;;;6.45;2.17;;;;;;;14.90;50.61;98903.56;5048614;28;20021;-71
2023/05/02 11:55:49;;;;;;;8.40;2.45;;;;;;;15.59;51.11;99310.59;5049978;28;20326;-71